sensor_id;sensor_type;location;lat;lon;timestamp;temperature;humidity
12922;DHT22;6528;48.086;16.282;2023-02-28T00:00:53;22.20;35.30
12922;DHT22;6528;48.086;16.282;2023-02-28T00:03:20;22.20;35.50
12922;DHT22;6528;48.086;16.282;2023-02-28T00:05:47;22.20;35.80
12922;DHT22;6528;48.086;16.282;2023-02-28T00:08:14;22.20;37.20
12922;DHT22;6528;48.086;16.282;2023-02-28T00:10:41;22.20;36.80
12922;DHT22;6528;48.086;16.282;2023-02-28T00:13:08;22.20;38.10
12922;DHT22;6528;48.086;16.282;2023-02-28T00:15:34;22.20;36.70
12922;DHT22;6528;48.086;16.282;2023-02-28T00:18:02;22.20;36.80
12922;DHT22;6528;48.086;16.282;2023-02-28T00:20:29;22.20;37.70
12922;DHT22;6528;48.086;16.282;2023-02-28T00:22:56;22.20;38.20
12922;DHT22;6528;48.086;16.282;2023-02-28T00:25:24;22.20;38.10
12922;DHT22;6528;48.086;16.282;2023-02-28T00:27:51;22.20;55.60
12922;DHT22;6528;48.086;16.282;2023-02-28T00:30:20;22.20;38.70
12922;DHT22;6528;48.086;16.282;2023-02-28T00:32:48;22.20;38.80
12922;DHT22;6528;48.086;16.282;2023-02-28T00:35:16;22.20;38.80
12922;DHT22;6528;48.086;16.282;2023-02-28T00:37:43;22.20;39.10
12922;DHT22;6528;48.086;16.282;2023-02-28T00:40:10;22.20;40.00
12922;DHT22;6528;48.086;16.282;2023-02-28T00:42:39;22.20;40.60
12922;DHT22;6528;48.086;16.282;2023-02-28T00:45:06;22.20;40.30
12922;DHT22;6528;48.086;16.282;2023-02-28T00:47:34;22.20;40.60
12922;DHT22;6528;48.086;16.282;2023-02-28T00:50:02;22.20;41.40
12922;DHT22;6528;48.086;16.282;2023-02-28T00:52:29;22.30;41.60
12922;DHT22;6528;48.086;16.282;2023-02-28T00:54:55;22.20;42.00
12922;DHT22;6528;48.086;16.282;2023-02-28T00:57:22;22.20;42.00
12922;DHT22;6528;48.086;16.282;2023-02-28T00:59:49;22.20;42.80
12922;DHT22;6528;48.086;16.282;2023-02-28T01:02:16;22.20;43.70
12922;DHT22;6528;48.086;16.282;2023-02-28T01:04:44;22.20;43.50
12922;DHT22;6528;48.086;16.282;2023-02-28T01:07:11;22.20;43.80
12922;DHT22;6528;48.086;16.282;2023-02-28T01:09:37;22.20;43.80
12922;DHT22;6528;48.086;16.282;2023-02-28T01:12:04;22.20;44.90
12922;DHT22;6528;48.086;16.282;2023-02-28T01:14:31;22.20;45.00
12922;DHT22;6528;48.086;16.282;2023-02-28T01:16:58;22.20;45.60
12922;DHT22;6528;48.086;16.282;2023-02-28T01:19:24;22.20;45.80
12922;DHT22;6528;48.086;16.282;2023-02-28T01:21:51;22.20;46.70
12922;DHT22;6528;48.086;16.282;2023-02-28T01:24:18;22.30;47.00
12922;DHT22;6528;48.086;16.282;2023-02-28T01:26:45;22.20;47.30
12922;DHT22;6528;48.086;16.282;2023-02-28T01:29:12;22.20;47.30
12922;DHT22;6528;48.086;16.282;2023-02-28T01:31:39;22.20;47.60
12922;DHT22;6528;48.086;16.282;2023-02-28T01:34:05;22.20;48.30
12922;DHT22;6528;48.086;16.282;2023-02-28T01:36:32;22.20;48.60
12922;DHT22;6528;48.086;16.282;2023-02-28T01:38:59;22.30;49.00
12922;DHT22;6528;48.086;16.282;2023-02-28T01:41:29;22.30;49.50
12922;DHT22;6528;48.086;16.282;2023-02-28T01:46:50;22.30;50.50
12922;DHT22;6528;48.086;16.282;2023-02-28T01:49:17;22.30;50.80
12922;DHT22;6528;48.086;16.282;2023-02-28T01:51:54;22.30;51.00
12922;DHT22;6528;48.086;16.282;2023-02-28T01:54:25;22.20;51.50
12922;DHT22;6528;48.086;16.282;2023-02-28T01:57:01;22.30;51.70
12922;DHT22;6528;48.086;16.282;2023-02-28T01:59:38;22.30;51.90
12922;DHT22;6528;48.086;16.282;2023-02-28T02:02:13;22.30;52.60
12922;DHT22;6528;48.086;16.282;2023-02-28T02:04:53;22.20;51.60
12922;DHT22;6528;48.086;16.282;2023-02-28T02:07:21;22.30;52.40
12922;DHT22;6528;48.086;16.282;2023-02-28T02:09:49;22.30;52.70
12922;DHT22;6528;48.086;16.282;2023-02-28T02:12:51;22.20;53.40
12922;DHT22;6528;48.086;16.282;2023-02-28T02:15:26;22.30;53.60
12922;DHT22;6528;48.086;16.282;2023-02-28T02:17:58;22.30;54.00
12922;DHT22;6528;48.086;16.282;2023-02-28T02:23:33;22.30;54.00
12922;DHT22;6528;48.086;16.282;2023-02-28T02:37:29;22.30;55.10
12922;DHT22;6528;48.086;16.282;2023-02-28T02:40:15;22.30;56.40
12922;DHT22;6528;48.086;16.282;2023-02-28T02:45:25;22.30;56.70
12922;DHT22;6528;48.086;16.282;2023-02-28T02:47:53;22.30;56.40
12922;DHT22;6528;48.086;16.282;2023-02-28T02:50:25;22.30;57.00
12922;DHT22;6528;48.086;16.282;2023-02-28T02:52:57;22.30;56.90
12922;DHT22;6528;48.086;16.282;2023-02-28T02:55:25;22.30;58.50
12922;DHT22;6528;48.086;16.282;2023-02-28T02:58:01;22.30;58.00
12922;DHT22;6528;48.086;16.282;2023-02-28T03:00:42;22.30;58.80
12922;DHT22;6528;48.086;16.282;2023-02-28T03:03:10;22.30;81.70
12922;DHT22;6528;48.086;16.282;2023-02-28T03:05:49;22.30;59.90
12922;DHT22;6528;48.086;16.282;2023-02-28T03:08:16;22.30;60.20
12922;DHT22;6528;48.086;16.282;2023-02-28T03:10:45;22.30;60.20
12922;DHT22;6528;48.086;16.282;2023-02-28T03:13:19;22.30;60.00
12922;DHT22;6528;48.086;16.282;2023-02-28T03:16:32;22.30;60.30
12922;DHT22;6528;48.086;16.282;2023-02-28T03:19:28;22.30;60.90
12922;DHT22;6528;48.086;16.282;2023-02-28T03:22:04;22.30;61.40
12922;DHT22;6528;48.086;16.282;2023-02-28T03:27:53;22.30;61.70
12922;DHT22;6528;48.086;16.282;2023-02-28T03:30:29;22.30;86.10
12922;DHT22;6528;48.086;16.282;2023-02-28T03:33:03;22.30;63.60
12922;DHT22;6528;48.086;16.282;2023-02-28T03:35:38;22.30;63.30
12922;DHT22;6528;48.086;16.282;2023-02-28T03:38:29;22.30;63.30
12922;DHT22;6528;48.086;16.282;2023-02-28T03:43:39;22.30;63.40
12922;DHT22;6528;48.086;16.282;2023-02-28T03:46:10;22.30;63.80
12922;DHT22;6528;48.086;16.282;2023-02-28T03:49:03;22.30;64.60
12922;DHT22;6528;48.086;16.282;2023-02-28T03:51:33;22.30;64.00
12922;DHT22;6528;48.086;16.282;2023-02-28T03:54:06;22.30;65.80
12922;DHT22;6528;48.086;16.282;2023-02-28T03:56:35;22.30;64.60
12922;DHT22;6528;48.086;16.282;2023-02-28T03:59:26;22.30;87.70
12922;DHT22;6528;48.086;16.282;2023-02-28T04:01:54;22.30;65.20
12922;DHT22;6528;48.086;16.282;2023-02-28T04:04:21;22.30;65.90
12922;DHT22;6528;48.086;16.282;2023-02-28T04:06:53;22.30;65.70
12922;DHT22;6528;48.086;16.282;2023-02-28T04:09:26;22.30;66.00
12922;DHT22;6528;48.086;16.282;2023-02-28T04:11:54;22.30;66.40
12922;DHT22;6528;48.086;16.282;2023-02-28T04:14:24;22.30;67.40
12922;DHT22;6528;48.086;16.282;2023-02-28T04:16:51;22.30;68.00
12922;DHT22;6528;48.086;16.282;2023-02-28T04:19:19;22.30;68.70
12922;DHT22;6528;48.086;16.282;2023-02-28T04:21:50;22.30;68.20
12922;DHT22;6528;48.086;16.282;2023-02-28T04:24:23;22.30;68.10
12922;DHT22;6528;48.086;16.282;2023-02-28T04:26:52;22.30;69.10
12922;DHT22;6528;48.086;16.282;2023-02-28T04:29:30;22.30;69.90
12922;DHT22;6528;48.086;16.282;2023-02-28T04:31:59;22.20;69.20
12922;DHT22;6528;48.086;16.282;2023-02-28T04:34:29;22.30;69.60
12922;DHT22;6528;48.086;16.282;2023-02-28T04:36:56;22.20;69.70
12922;DHT22;6528;48.086;16.282;2023-02-28T04:39:39;22.30;69.80
12922;DHT22;6528;48.086;16.282;2023-02-28T04:42:06;22.20;70.00
12922;DHT22;6528;48.086;16.282;2023-02-28T04:44:32;22.30;70.10
12922;DHT22;6528;48.086;16.282;2023-02-28T04:46:59;22.30;70.40
12922;DHT22;6528;48.086;16.282;2023-02-28T04:49:26;22.30;70.20
12922;DHT22;6528;48.086;16.282;2023-02-28T04:51:53;22.30;70.50
12922;DHT22;6528;48.086;16.282;2023-02-28T04:54:20;22.30;71.00
12922;DHT22;6528;48.086;16.282;2023-02-28T04:56:47;22.20;71.40
12922;DHT22;6528;48.086;16.282;2023-02-28T04:59:16;22.20;72.20
12922;DHT22;6528;48.086;16.282;2023-02-28T05:01:46;22.30;73.10
12922;DHT22;6528;48.086;16.282;2023-02-28T05:04:14;22.30;73.50
12922;DHT22;6528;48.086;16.282;2023-02-28T05:06:40;22.30;72.00
12922;DHT22;6528;48.086;16.282;2023-02-28T05:09:07;22.20;72.20
12922;DHT22;6528;48.086;16.282;2023-02-28T05:11:34;22.20;73.00
12922;DHT22;6528;48.086;16.282;2023-02-28T05:14:09;22.20;72.60
12922;DHT22;6528;48.086;16.282;2023-02-28T05:16:36;22.20;74.30
12922;DHT22;6528;48.086;16.282;2023-02-28T05:19:03;22.20;73.70
12922;DHT22;6528;48.086;16.282;2023-02-28T05:21:39;22.20;73.60
12922;DHT22;6528;48.086;16.282;2023-02-28T05:24:09;22.30;73.90
12922;DHT22;6528;48.086;16.282;2023-02-28T05:26:39;22.30;74.50
12922;DHT22;6528;48.086;16.282;2023-02-28T05:29:06;22.30;75.60
12922;DHT22;6528;48.086;16.282;2023-02-28T05:31:34;22.20;75.00
12922;DHT22;6528;48.086;16.282;2023-02-28T05:34:01;22.20;75.60
12922;DHT22;6528;48.086;16.282;2023-02-28T05:36:27;22.20;74.80
12922;DHT22;6528;48.086;16.282;2023-02-28T05:38:54;22.20;75.30
12922;DHT22;6528;48.086;16.282;2023-02-28T05:41:21;22.20;75.60
12922;DHT22;6528;48.086;16.282;2023-02-28T05:43:48;22.20;75.10
12922;DHT22;6528;48.086;16.282;2023-02-28T05:46:15;22.20;75.80
12922;DHT22;6528;48.086;16.282;2023-02-28T05:48:45;22.20;76.10
12922;DHT22;6528;48.086;16.282;2023-02-28T05:51:12;22.20;76.60
12922;DHT22;6528;48.086;16.282;2023-02-28T05:53:39;22.20;77.80
12922;DHT22;6528;48.086;16.282;2023-02-28T05:56:06;22.20;76.40
12922;DHT22;6528;48.086;16.282;2023-02-28T05:58:32;22.20;76.50
12922;DHT22;6528;48.086;16.282;2023-02-28T06:01:18;22.20;77.60
12922;DHT22;6528;48.086;16.282;2023-02-28T06:03:45;22.20;76.80
12922;DHT22;6528;48.086;16.282;2023-02-28T06:06:12;22.20;77.00
12922;DHT22;6528;48.086;16.282;2023-02-28T06:08:39;22.20;76.90
12922;DHT22;6528;48.086;16.282;2023-02-28T06:11:05;22.20;78.10
12922;DHT22;6528;48.086;16.282;2023-02-28T06:13:33;22.20;77.50
12922;DHT22;6528;48.086;16.282;2023-02-28T06:16:03;22.20;78.10
12922;DHT22;6528;48.086;16.282;2023-02-28T06:18:30;22.20;79.80
12922;DHT22;6528;48.086;16.282;2023-02-28T06:20:57;22.20;79.60
12922;DHT22;6528;48.086;16.282;2023-02-28T06:23:24;22.20;78.90
12922;DHT22;6528;48.086;16.282;2023-02-28T06:25:51;22.20;78.70
12922;DHT22;6528;48.086;16.282;2023-02-28T06:28:19;22.20;80.00
12922;DHT22;6528;48.086;16.282;2023-02-28T06:30:46;22.20;79.20
12922;DHT22;6528;48.086;16.282;2023-02-28T06:33:13;22.20;79.60
12922;DHT22;6528;48.086;16.282;2023-02-28T06:35:39;22.20;79.80
12922;DHT22;6528;48.086;16.282;2023-02-28T06:38:06;22.20;80.70
12922;DHT22;6528;48.086;16.282;2023-02-28T06:40:33;22.10;79.60
12922;DHT22;6528;48.086;16.282;2023-02-28T06:43:02;22.20;80.00
12922;DHT22;6528;48.086;16.282;2023-02-28T06:45:29;22.20;80.70
12922;DHT22;6528;48.086;16.282;2023-02-28T06:47:56;22.20;79.30
12922;DHT22;6528;48.086;16.282;2023-02-28T06:50:23;22.20;79.60
12922;DHT22;6528;48.086;16.282;2023-02-28T06:52:49;22.20;81.70
12922;DHT22;6528;48.086;16.282;2023-02-28T06:55:20;22.20;81.80
12922;DHT22;6528;48.086;16.282;2023-02-28T06:57:47;22.10;80.30
12922;DHT22;6528;48.086;16.282;2023-02-28T07:00:14;22.10;81.30
12922;DHT22;6528;48.086;16.282;2023-02-28T07:02:41;22.10;79.30
12922;DHT22;6528;48.086;16.282;2023-02-28T07:05:08;22.10;78.60
12922;DHT22;6528;48.086;16.282;2023-02-28T07:07:34;22.00;77.80
12922;DHT22;6528;48.086;16.282;2023-02-28T07:10:03;22.10;77.20
12922;DHT22;6528;48.086;16.282;2023-02-28T07:12:30;22.10;77.10
12922;DHT22;6528;48.086;16.282;2023-02-28T07:14:57;22.10;76.60
12922;DHT22;6528;48.086;16.282;2023-02-28T07:17:24;22.00;76.00
12922;DHT22;6528;48.086;16.282;2023-02-28T07:19:50;22.00;75.40
12922;DHT22;6528;48.086;16.282;2023-02-28T07:22:17;22.10;75.20
12922;DHT22;6528;48.086;16.282;2023-02-28T07:24:44;22.10;74.40
12922;DHT22;6528;48.086;16.282;2023-02-28T07:27:10;22.10;75.00
12922;DHT22;6528;48.086;16.282;2023-02-28T07:29:37;22.00;74.70
12922;DHT22;6528;48.086;16.282;2023-02-28T07:32:04;22.10;75.10
12922;DHT22;6528;48.086;16.282;2023-02-28T07:34:31;22.10;73.70
12922;DHT22;6528;48.086;16.282;2023-02-28T07:36:58;22.10;73.00
12922;DHT22;6528;48.086;16.282;2023-02-28T07:39:25;22.10;73.00
12922;DHT22;6528;48.086;16.282;2023-02-28T07:41:52;22.10;74.30
12922;DHT22;6528;48.086;16.282;2023-02-28T07:44:18;22.10;92.40
12922;DHT22;6528;48.086;16.282;2023-02-28T07:46:45;22.00;72.40
12922;DHT22;6528;48.086;16.282;2023-02-28T07:49:12;22.10;72.60
12922;DHT22;6528;48.086;16.282;2023-02-28T07:51:38;22.00;71.90
12922;DHT22;6528;48.086;16.282;2023-02-28T07:54:05;22.10;71.80
12922;DHT22;6528;48.086;16.282;2023-02-28T07:56:32;22.10;70.90
12922;DHT22;6528;48.086;16.282;2023-02-28T07:58:59;22.10;72.60
12922;DHT22;6528;48.086;16.282;2023-02-28T08:01:26;22.10;70.40
12922;DHT22;6528;48.086;16.282;2023-02-28T08:03:53;22.10;70.90
12922;DHT22;6528;48.086;16.282;2023-02-28T08:06:23;22.10;70.30
12922;DHT22;6528;48.086;16.282;2023-02-28T08:08:50;22.10;70.40
12922;DHT22;6528;48.086;16.282;2023-02-28T08:11:17;22.10;70.30
12922;DHT22;6528;48.086;16.282;2023-02-28T08:13:45;22.10;70.40
12922;DHT22;6528;48.086;16.282;2023-02-28T08:16:13;22.10;70.90
12922;DHT22;6528;48.086;16.282;2023-02-28T08:18:44;22.10;70.10
12922;DHT22;6528;48.086;16.282;2023-02-28T08:21:11;22.10;69.80
12922;DHT22;6528;48.086;16.282;2023-02-28T08:23:37;22.10;70.10
12922;DHT22;6528;48.086;16.282;2023-02-28T08:26:05;22.10;69.60
12922;DHT22;6528;48.086;16.282;2023-02-28T08:28:32;22.10;91.30
12922;DHT22;6528;48.086;16.282;2023-02-28T08:30:59;22.10;69.60
12922;DHT22;6528;48.086;16.282;2023-02-28T08:33:27;22.20;71.50
12922;DHT22;6528;48.086;16.282;2023-02-28T08:35:55;22.20;70.50
12922;DHT22;6528;48.086;16.282;2023-02-28T08:38:23;22.20;71.50
12922;DHT22;6528;48.086;16.282;2023-02-28T08:40:57;22.20;70.40
12922;DHT22;6528;48.086;16.282;2023-02-28T08:43:25;22.20;71.00
12922;DHT22;6528;48.086;16.282;2023-02-28T08:45:52;22.30;71.60
12922;DHT22;6528;48.086;16.282;2023-02-28T08:48:19;22.30;73.70
12922;DHT22;6528;48.086;16.282;2023-02-28T08:53:34;22.40;74.90
12922;DHT22;6528;48.086;16.282;2023-02-28T08:56:06;22.40;75.20
12922;DHT22;6528;48.086;16.282;2023-02-28T08:58:34;22.40;76.10
12922;DHT22;6528;48.086;16.282;2023-02-28T09:01:06;22.40;76.30
12922;DHT22;6528;48.086;16.282;2023-02-28T09:03:33;22.50;77.20
12922;DHT22;6528;48.086;16.282;2023-02-28T09:06:01;22.50;77.00
12922;DHT22;6528;48.086;16.282;2023-02-28T09:08:29;22.50;78.10
12922;DHT22;6528;48.086;16.282;2023-02-28T09:10:57;22.50;77.90
12922;DHT22;6528;48.086;16.282;2023-02-28T09:13:27;22.50;79.20
12922;DHT22;6528;48.086;16.282;2023-02-28T09:15:56;22.50;79.70
12922;DHT22;6528;48.086;16.282;2023-02-28T09:18:23;22.50;79.70
12922;DHT22;6528;48.086;16.282;2023-02-28T09:20:50;22.50;79.80
12922;DHT22;6528;48.086;16.282;2023-02-28T09:23:17;22.50;79.70
12922;DHT22;6528;48.086;16.282;2023-02-28T09:25:48;22.60;79.50
12922;DHT22;6528;48.086;16.282;2023-02-28T09:28:16;22.60;80.10
12922;DHT22;6528;48.086;16.282;2023-02-28T09:30:49;22.60;81.60
12922;DHT22;6528;48.086;16.282;2023-02-28T09:33:17;22.60;82.40
12922;DHT22;6528;48.086;16.282;2023-02-28T09:35:45;22.70;83.50
12922;DHT22;6528;48.086;16.282;2023-02-28T09:38:12;22.60;83.30
12922;DHT22;6528;48.086;16.282;2023-02-28T09:40:57;22.70;83.90
12922;DHT22;6528;48.086;16.282;2023-02-28T09:43:28;22.70;84.20
12922;DHT22;6528;48.086;16.282;2023-02-28T09:46:05;22.70;85.40
12922;DHT22;6528;48.086;16.282;2023-02-28T09:48:42;22.80;86.30
12922;DHT22;6528;48.086;16.282;2023-02-28T09:53:56;22.80;88.00
12922;DHT22;6528;48.086;16.282;2023-02-28T09:56:30;22.80;90.10
12922;DHT22;6528;48.086;16.282;2023-02-28T09:58:59;22.90;90.50
12922;DHT22;6528;48.086;16.282;2023-02-28T10:04:42;22.90;91.00
12922;DHT22;6528;48.086;16.282;2023-02-28T10:07:19;22.90;91.90
12922;DHT22;6528;48.086;16.282;2023-02-28T10:09:53;22.90;92.00
12922;DHT22;6528;48.086;16.282;2023-02-28T10:12:21;22.90;99.90
12922;DHT22;6528;48.086;16.282;2023-02-28T10:14:51;23.00;92.80
12922;DHT22;6528;48.086;16.282;2023-02-28T10:17:22;23.00;93.60
12922;DHT22;6528;48.086;16.282;2023-02-28T10:20:01;23.00;93.50
12922;DHT22;6528;48.086;16.282;2023-02-28T10:25:24;23.00;94.50
12922;DHT22;6528;48.086;16.282;2023-02-28T10:28:16;23.00;94.50
12922;DHT22;6528;48.086;16.282;2023-02-28T10:30:45;23.00;94.80
12922;DHT22;6528;48.086;16.282;2023-02-28T10:33:30;23.00;95.10
12922;DHT22;6528;48.086;16.282;2023-02-28T10:35:58;23.00;94.70
12922;DHT22;6528;48.086;16.282;2023-02-28T10:43:36;23.10;95.00
12922;DHT22;6528;48.086;16.282;2023-02-28T10:46:13;23.10;95.40
12922;DHT22;6528;48.086;16.282;2023-02-28T10:48:47;23.10;95.30
12922;DHT22;6528;48.086;16.282;2023-02-28T10:51:18;23.10;95.90
12922;DHT22;6528;48.086;16.282;2023-02-28T10:53:53;23.10;96.00
12922;DHT22;6528;48.086;16.282;2023-02-28T10:56:28;23.10;96.80
12922;DHT22;6528;48.086;16.282;2023-02-28T10:59:00;23.20;96.60
12922;DHT22;6528;48.086;16.282;2023-02-28T11:01:38;23.20;97.30
12922;DHT22;6528;48.086;16.282;2023-02-28T11:04:34;23.20;97.30
12922;DHT22;6528;48.086;16.282;2023-02-28T11:07:19;23.20;97.60
12922;DHT22;6528;48.086;16.282;2023-02-28T11:09:54;23.20;97.70
12922;DHT22;6528;48.086;16.282;2023-02-28T11:12:38;23.20;97.90
12922;DHT22;6528;48.086;16.282;2023-02-28T11:18:02;23.20;98.10
12922;DHT22;6528;48.086;16.282;2023-02-28T11:20:34;23.20;98.20
12922;DHT22;6528;48.086;16.282;2023-02-28T11:23:02;23.20;98.50
12922;DHT22;6528;48.086;16.282;2023-02-28T11:25:32;23.10;98.50
12922;DHT22;6528;48.086;16.282;2023-02-28T11:28:01;23.10;98.10
12922;DHT22;6528;48.086;16.282;2023-02-28T11:30:32;23.10;98.20
12922;DHT22;6528;48.086;16.282;2023-02-28T11:33:01;23.10;98.40
12922;DHT22;6528;48.086;16.282;2023-02-28T11:35:45;23.10;98.50
12922;DHT22;6528;48.086;16.282;2023-02-28T11:38:12;23.10;98.60
12922;DHT22;6528;48.086;16.282;2023-02-28T11:49:31;23.00;98.00
12922;DHT22;6528;48.086;16.282;2023-02-28T12:03:28;22.90;96.70
12922;DHT22;6528;48.086;16.282;2023-02-28T12:06:00;23.00;96.50
12922;DHT22;6528;48.086;16.282;2023-02-28T12:19:43;22.90;96.90
12922;DHT22;6528;48.086;16.282;2023-02-28T12:27:56;22.90;95.80
12922;DHT22;6528;48.086;16.282;2023-02-28T12:30:29;22.90;95.60
12922;DHT22;6528;48.086;16.282;2023-02-28T12:33:11;22.90;95.00
12922;DHT22;6528;48.086;16.282;2023-02-28T12:35:45;22.90;94.70
12922;DHT22;6528;48.086;16.282;2023-02-28T12:38:24;22.80;94.60
12922;DHT22;6528;48.086;16.282;2023-02-28T12:43:33;22.80;94.60
12922;DHT22;6528;48.086;16.282;2023-02-28T12:46:09;22.80;94.10
12922;DHT22;6528;48.086;16.282;2023-02-28T12:48:47;22.80;93.60
12922;DHT22;6528;48.086;16.282;2023-02-28T12:51:15;22.80;93.40
12922;DHT22;6528;48.086;16.282;2023-02-28T13:08:04;22.70;91.70
12922;DHT22;6528;48.086;16.282;2023-02-28T13:10:45;22.70;91.20
12922;DHT22;6528;48.086;16.282;2023-02-28T13:13:17;22.70;91.20
12922;DHT22;6528;48.086;16.282;2023-02-28T13:20:56;22.70;90.30
12922;DHT22;6528;48.086;16.282;2023-02-28T13:26:08;22.70;89.60
12922;DHT22;6528;48.086;16.282;2023-02-28T13:39:45;22.70;87.40
12922;DHT22;6528;48.086;16.282;2023-02-28T13:55:49;22.60;83.10
12922;DHT22;6528;48.086;16.282;2023-02-28T14:06:52;22.60;79.30
12922;DHT22;6528;48.086;16.282;2023-02-28T14:15:25;22.60;78.70
12922;DHT22;6528;48.086;16.282;2023-02-28T14:17:55;22.60;77.10
12922;DHT22;6528;48.086;16.282;2023-02-28T14:20:26;22.50;93.80
12922;DHT22;6528;48.086;16.282;2023-02-28T14:23:09;22.50;74.60
12922;DHT22;6528;48.086;16.282;2023-02-28T14:28:17;22.50;72.80
12922;DHT22;6528;48.086;16.282;2023-02-28T14:36:27;22.50;71.70
12922;DHT22;6528;48.086;16.282;2023-02-28T14:39:00;22.50;70.60
12922;DHT22;6528;48.086;16.282;2023-02-28T14:44:00;22.50;68.50
12922;DHT22;6528;48.086;16.282;2023-02-28T14:46:37;22.50;69.40
12922;DHT22;6528;48.086;16.282;2023-02-28T14:49:06;22.50;67.80
12922;DHT22;6528;48.086;16.282;2023-02-28T14:51:36;22.50;67.40
12922;DHT22;6528;48.086;16.282;2023-02-28T14:54:03;22.50;67.20
12922;DHT22;6528;48.086;16.282;2023-02-28T14:56:36;22.50;67.10
12922;DHT22;6528;48.086;16.282;2023-02-28T14:59:05;22.50;66.40
12922;DHT22;6528;48.086;16.282;2023-02-28T15:01:47;22.40;65.00
12922;DHT22;6528;48.086;16.282;2023-02-28T15:04:23;22.50;64.70
12922;DHT22;6528;48.086;16.282;2023-02-28T15:07:11;22.50;64.30
12922;DHT22;6528;48.086;16.282;2023-02-28T15:09:39;22.50;62.90
12922;DHT22;6528;48.086;16.282;2023-02-28T15:12:07;22.40;62.70
12922;DHT22;6528;48.086;16.282;2023-02-28T15:14:35;22.50;61.30
12922;DHT22;6528;48.086;16.282;2023-02-28T15:17:11;22.40;61.40
12922;DHT22;6528;48.086;16.282;2023-02-28T15:19:41;22.40;60.70
12922;DHT22;6528;48.086;16.282;2023-02-28T15:22:15;22.40;59.70
12922;DHT22;6528;48.086;16.282;2023-02-28T15:24:51;22.40;58.90
12922;DHT22;6528;48.086;16.282;2023-02-28T15:29:50;22.40;58.10
12922;DHT22;6528;48.086;16.282;2023-02-28T15:32:37;22.40;57.90
12922;DHT22;6528;48.086;16.282;2023-02-28T15:37:56;22.40;55.80
12922;DHT22;6528;48.086;16.282;2023-02-28T15:40:27;22.40;54.40
12922;DHT22;6528;48.086;16.282;2023-02-28T15:43:04;22.40;55.70
12922;DHT22;6528;48.086;16.282;2023-02-28T15:45:37;22.40;53.40
12922;DHT22;6528;48.086;16.282;2023-02-28T15:48:20;22.40;53.30
12922;DHT22;6528;48.086;16.282;2023-02-28T15:51:12;22.40;52.90
12922;DHT22;6528;48.086;16.282;2023-02-28T15:56:47;22.30;51.10
12922;DHT22;6528;48.086;16.282;2023-02-28T15:59:28;22.30;50.90
12922;DHT22;6528;48.086;16.282;2023-02-28T16:02:16;22.30;50.30
12922;DHT22;6528;48.086;16.282;2023-02-28T16:04:59;22.30;49.40
12922;DHT22;6528;48.086;16.282;2023-02-28T16:07:26;22.30;48.30
12922;DHT22;6528;48.086;16.282;2023-02-28T16:09:54;22.30;48.10
12922;DHT22;6528;48.086;16.282;2023-02-28T16:12:26;22.30;48.70
12922;DHT22;6528;48.086;16.282;2023-02-28T16:14:55;22.30;47.00
12922;DHT22;6528;48.086;16.282;2023-02-28T16:17:24;22.30;46.30
12922;DHT22;6528;48.086;16.282;2023-02-28T16:19:51;22.30;45.40
12922;DHT22;6528;48.086;16.282;2023-02-28T16:22:18;22.30;45.10
12922;DHT22;6528;48.086;16.282;2023-02-28T16:24:45;22.30;44.40
12922;DHT22;6528;48.086;16.282;2023-02-28T16:27:27;22.30;44.00
12922;DHT22;6528;48.086;16.282;2023-02-28T16:29:55;22.30;43.90
12922;DHT22;6528;48.086;16.282;2023-02-28T16:32:22;22.30;42.90
12922;DHT22;6528;48.086;16.282;2023-02-28T16:34:49;22.20;42.30
12922;DHT22;6528;48.086;16.282;2023-02-28T16:37:17;22.30;42.50
12922;DHT22;6528;48.086;16.282;2023-02-28T16:39:45;22.30;42.70
12922;DHT22;6528;48.086;16.282;2023-02-28T16:42:19;22.30;42.60
12922;DHT22;6528;48.086;16.282;2023-02-28T16:44:48;22.30;43.10
12922;DHT22;6528;48.086;16.282;2023-02-28T16:47:15;22.30;42.00
12922;DHT22;6528;48.086;16.282;2023-02-28T16:49:42;22.30;42.00
12922;DHT22;6528;48.086;16.282;2023-02-28T16:52:10;22.30;40.00
12922;DHT22;6528;48.086;16.282;2023-02-28T16:54:38;22.30;39.70
12922;DHT22;6528;48.086;16.282;2023-02-28T16:57:06;22.30;39.00
12922;DHT22;6528;48.086;16.282;2023-02-28T16:59:41;22.30;39.20
12922;DHT22;6528;48.086;16.282;2023-02-28T17:02:13;22.30;38.80
12922;DHT22;6528;48.086;16.282;2023-02-28T17:04:40;22.30;38.00
12922;DHT22;6528;48.086;16.282;2023-02-28T17:07:16;22.30;38.70
12922;DHT22;6528;48.086;16.282;2023-02-28T17:09:44;22.30;38.00
12922;DHT22;6528;48.086;16.282;2023-02-28T17:12:12;22.30;37.60
12922;DHT22;6528;48.086;16.282;2023-02-28T17:14:39;22.30;37.60
12922;DHT22;6528;48.086;16.282;2023-02-28T17:17:06;22.30;37.60
12922;DHT22;6528;48.086;16.282;2023-02-28T17:19:33;22.40;37.50
12922;DHT22;6528;48.086;16.282;2023-02-28T17:22:02;22.30;38.60
12922;DHT22;6528;48.086;16.282;2023-02-28T17:24:29;22.30;37.60
12922;DHT22;6528;48.086;16.282;2023-02-28T17:26:57;22.30;37.10
12922;DHT22;6528;48.086;16.282;2023-02-28T17:29:24;22.30;36.50
12922;DHT22;6528;48.086;16.282;2023-02-28T17:31:51;22.30;36.70
12922;DHT22;6528;48.086;16.282;2023-02-28T17:34:18;22.30;36.70
12922;DHT22;6528;48.086;16.282;2023-02-28T17:36:47;22.40;36.90
12922;DHT22;6528;48.086;16.282;2023-02-28T17:39:15;22.30;35.70
12922;DHT22;6528;48.086;16.282;2023-02-28T17:41:46;22.30;35.60
12922;DHT22;6528;48.086;16.282;2023-02-28T17:44:13;22.30;35.20
12922;DHT22;6528;48.086;16.282;2023-02-28T17:46:40;22.30;35.50
12922;DHT22;6528;48.086;16.282;2023-02-28T17:49:08;22.30;34.60
12922;DHT22;6528;48.086;16.282;2023-02-28T17:51:35;22.30;34.60
12922;DHT22;6528;48.086;16.282;2023-02-28T17:54:02;22.30;34.30
12922;DHT22;6528;48.086;16.282;2023-02-28T17:56:29;22.30;34.40
12922;DHT22;6528;48.086;16.282;2023-02-28T17:58:56;22.30;33.90
12922;DHT22;6528;48.086;16.282;2023-02-28T18:01:23;22.30;33.60
12922;DHT22;6528;48.086;16.282;2023-02-28T18:03:54;22.30;32.90
12922;DHT22;6528;48.086;16.282;2023-02-28T18:09:02;22.30;33.10
12922;DHT22;6528;48.086;16.282;2023-02-28T18:11:29;22.30;32.40
12922;DHT22;6528;48.086;16.282;2023-02-28T18:14:08;22.30;32.50
12922;DHT22;6528;48.086;16.282;2023-02-28T18:16:35;22.30;32.50
12922;DHT22;6528;48.086;16.282;2023-02-28T18:19:01;22.30;31.50
12922;DHT22;6528;48.086;16.282;2023-02-28T18:21:28;22.30;31.60
12922;DHT22;6528;48.086;16.282;2023-02-28T18:23:56;22.30;30.80
12922;DHT22;6528;48.086;16.282;2023-02-28T18:26:23;22.30;30.70
12922;DHT22;6528;48.086;16.282;2023-02-28T18:28:50;22.30;31.80
12922;DHT22;6528;48.086;16.282;2023-02-28T18:31:18;22.30;30.40
12922;DHT22;6528;48.086;16.282;2023-02-28T18:33:50;22.30;30.00
12922;DHT22;6528;48.086;16.282;2023-02-28T18:36:19;22.20;29.80
12922;DHT22;6528;48.086;16.282;2023-02-28T18:38:47;22.20;28.30